createdAt,value
2023-02-17T09:44:17.615Z,95844.55
2023-02-17T09:46:59.515Z,95844.16
2023-02-17T09:49:10.356Z,95839.40
2023-02-17T09:51:36.709Z,95839.27
2023-02-17T09:54:03.100Z,95840.20
2023-02-17T09:56:29.462Z,95842.78
2023-02-17T09:58:55.926Z,95830.76
2023-02-17T10:01:22.282Z,95828.39
2023-02-17T10:03:48.608Z,95831.37
2023-02-17T10:06:14.951Z,95829.47
2023-02-17T10:08:41.372Z,95822.19
2023-02-17T10:11:07.715Z,95823.29
2023-02-17T10:13:34.147Z,95818.31
2023-02-17T10:16:00.457Z,95816.59
2023-02-17T10:18:26.876Z,95806.45
2023-02-17T10:20:53.227Z,95806.45
2023-02-17T10:23:19.565Z,95813.17
2023-02-17T10:25:45.976Z,95808.29
2023-02-17T10:28:12.319Z,95808.29
2023-02-17T10:30:38.785Z,95803.44
2023-02-17T10:33:05.074Z,95798.05
2023-02-17T10:35:31.463Z,95786.44
2023-02-17T10:37:57.835Z,95784.23
2023-02-17T10:40:24.185Z,95778.63
2023-02-17T10:42:50.731Z,95779.84
2023-02-17T10:45:16.969Z,95781.62
2023-02-17T10:47:43.426Z,95780.87
2023-02-17T10:50:09.801Z,95775.53
2023-02-17T10:52:36.184Z,95773.38
2023-02-17T10:55:06.593Z,95766.44
2023-02-17T10:57:28.946Z,95770.15
2023-02-17T10:59:55.276Z,95760.81
2023-02-17T11:02:21.675Z,95772.44
2023-02-17T11:04:48.025Z,95745.25
2023-02-17T11:07:14.412Z,95761.98
2023-02-17T11:09:40.759Z,95759.70
2023-02-17T11:12:07.160Z,95742.06
2023-02-17T11:14:33.505Z,95742.06
2023-02-17T11:16:59.947Z,95759.23
2023-02-17T11:19:28.727Z,95751.09
2023-02-17T11:21:55.090Z,95751.09
2023-02-17T11:24:21.418Z,95748.52
2023-02-17T11:26:47.794Z,95731.66
2023-02-17T11:29:14.142Z,95731.66
2023-02-17T11:31:40.622Z,95736.41
2023-02-17T11:34:06.889Z,95743.57
2023-02-17T11:36:33.360Z,95743.69
2023-02-17T11:38:59.719Z,95735.61
2023-02-17T11:41:26.096Z,95740.16
2023-02-17T11:43:52.438Z,95734.05
2023-02-17T11:46:18.861Z,95733.03
2023-02-17T11:48:45.161Z,95730.10
2023-02-17T11:51:11.536Z,95730.10
2023-02-17T11:53:37.902Z,95729.64
2023-02-17T11:56:04.668Z,95724.91
2023-02-17T11:58:30.636Z,95726.13
2023-02-17T12:00:58.340Z,95719.05
2023-02-17T12:03:23.398Z,95716.34
2023-02-17T12:05:49.755Z,95715.66
2023-02-17T12:08:16.101Z,95711.20
2023-02-17T12:10:42.483Z,95696.59
2023-02-17T12:13:08.825Z,95696.59
2023-02-17T12:15:35.296Z,95702.67
2023-02-17T12:18:01.565Z,95695.02
2023-02-17T12:20:27.961Z,95695.02
2023-02-17T12:22:54.304Z,95698.45
2023-02-17T12:25:20.702Z,95689.08
2023-02-17T12:27:47.062Z,95672.03
2023-02-17T12:30:13.570Z,95672.03
2023-02-17T12:32:39.856Z,95678.40
2023-02-17T12:35:06.235Z,95678.40
2023-02-17T12:37:32.590Z,95680.14
2023-02-17T12:39:58.973Z,95670.16
2023-02-17T12:42:25.316Z,95669.20
2023-02-17T12:44:51.730Z,95672.39
2023-02-17T12:47:18.078Z,95667.73
2023-02-17T12:49:44.475Z,95662.35
2023-02-17T12:52:10.820Z,95658.09
2023-02-17T12:54:37.236Z,95663.50
2023-02-17T12:57:03.590Z,95656.72
2023-02-17T12:59:29.981Z,95657.28
2023-02-17T13:01:56.319Z,95656.00
2023-02-17T13:04:22.712Z,95649.55
2023-02-17T13:06:49.069Z,95628.96
2023-02-17T13:09:15.450Z,95647.70
2023-02-17T13:11:41.852Z,95642.86
2023-02-17T13:14:08.291Z,95647.23
2023-02-17T13:16:34.648Z,95646.64
2023-02-17T13:19:01.036Z,95650.75
2023-02-17T13:21:27.732Z,95653.23
2023-02-17T13:23:54.111Z,95651.21
2023-02-17T13:26:20.470Z,95639.13
2023-02-17T13:28:46.874Z,95639.13
2023-02-17T13:31:13.330Z,95644.20
2023-02-17T13:33:39.620Z,95636.77
2023-02-17T13:36:06.266Z,95636.77
2023-02-17T13:38:32.454Z,95622.92
2023-02-17T13:40:58.749Z,95622.92
2023-02-17T13:43:27.267Z,95634.20
2023-02-17T13:45:53.668Z,95634.20
2023-02-17T13:48:20.057Z,95638.90
2023-02-17T13:50:46.415Z,95636.92
2023-02-17T13:53:12.853Z,95612.60
2023-02-17T13:55:39.184Z,95604.84
2023-02-17T13:58:05.590Z,95618.93
2023-02-17T14:00:31.946Z,95618.93
2023-02-17T14:02:58.349Z,95625.89
2023-02-17T14:05:24.719Z,95624.83
2023-02-17T14:07:51.112Z,95624.83
2023-02-17T14:10:17.469Z,95626.25
2023-02-17T14:12:43.903Z,95618.50
2023-02-17T14:15:10.258Z,95618.50
2023-02-17T14:17:36.665Z,95624.47
2023-02-17T14:20:03.043Z,95628.61
2023-02-17T14:22:29.423Z,95628.61
2023-02-17T14:24:55.768Z,95626.26
2023-02-17T14:27:22.165Z,95614.36
2023-02-17T14:29:48.528Z,95614.36
2023-02-17T14:32:14.979Z,95624.59
2023-02-17T14:34:41.255Z,95630.09
2023-02-17T14:37:07.698Z,95630.09
2023-02-17T14:39:34.047Z,95640.69
2023-02-17T14:42:00.476Z,95645.40
2023-02-17T14:44:26.820Z,95642.81
2023-02-17T14:46:53.248Z,95640.33
2023-02-17T14:49:20.540Z,95640.45
2023-02-17T14:51:45.987Z,95637.65
2023-02-17T14:54:12.327Z,95642.91
2023-02-17T14:56:38.730Z,95642.91
2023-02-17T14:59:05.068Z,95634.56
2023-02-17T15:01:31.516Z,95637.52
2023-02-17T15:03:57.842Z,95639.87
2023-02-17T15:06:26.060Z,95630.69
2023-02-17T15:08:50.576Z,95630.69
2023-02-17T15:11:16.974Z,95637.38
2023-02-17T15:13:43.335Z,95637.98
2023-02-17T15:16:10.106Z,95638.34
2023-02-17T15:18:36.073Z,95641.84
2023-02-17T15:21:02.470Z,95623.40
2023-02-17T15:23:28.829Z,95638.90
2023-02-17T15:25:55.206Z,95638.90
2023-02-17T15:28:21.541Z,95637.73
2023-02-17T15:30:47.931Z,95643.05
2023-02-17T15:33:14.280Z,95642.31
2023-02-17T15:35:40.668Z,95633.63
2023-02-17T15:38:07.011Z,95633.63
2023-02-17T15:40:33.395Z,95648.77
2023-02-17T15:42:59.732Z,95618.32
2023-02-17T15:45:26.125Z,95650.56
2023-02-17T15:47:53.830Z,95654.53
2023-02-17T15:50:20.168Z,95668.38
2023-02-17T15:52:45.202Z,95672.37
2023-02-17T15:55:11.573Z,95672.37
2023-02-17T15:57:37.915Z,95679.66
2023-02-17T16:00:04.319Z,95678.38
2023-02-17T16:02:30.639Z,95680.95
2023-02-17T16:04:57.045Z,95685.86
2023-02-17T16:07:23.366Z,95690.09
2023-02-17T16:09:49.801Z,95688.55
2023-02-17T16:12:16.127Z,95682.32
2023-02-17T16:14:42.509Z,95682.32
2023-02-17T16:17:08.842Z,95697.00
2023-02-17T16:19:35.231Z,95697.00
2023-02-17T16:22:01.589Z,95708.84
2023-02-17T16:24:27.965Z,95694.27
2023-02-17T16:26:54.341Z,95694.27
2023-02-17T16:29:20.726Z,95705.34
2023-02-17T16:31:47.170Z,95702.02
2023-02-17T16:34:13.490Z,95710.23
2023-02-17T16:36:39.844Z,95707.55
2023-02-17T16:39:06.258Z,95711.66
2023-02-17T16:41:32.601Z,95715.63
2023-02-17T16:43:59.005Z,95714.70
2023-02-17T16:46:25.347Z,95723.37
2023-02-17T16:48:51.730Z,95722.91
2023-02-17T16:51:18.080Z,95725.95
2023-02-17T16:53:44.453Z,95725.61
2023-02-17T16:56:10.795Z,95731.34
2023-02-17T16:58:37.177Z,95724.18
2023-02-17T17:01:03.518Z,95724.18
2023-02-17T17:03:29.990Z,95727.83
2023-02-17T17:05:56.254Z,95733.59
2023-02-17T17:08:22.669Z,95718.27
2023-02-17T17:10:49.009Z,95718.27
2023-02-17T17:13:15.395Z,95732.52
2023-02-17T17:15:41.739Z,95727.45
2023-02-17T17:18:08.120Z,95726.74
2023-02-17T17:20:34.457Z,95726.47
2023-02-17T17:23:00.840Z,95726.47
2023-02-17T17:25:27.179Z,95729.78
2023-02-17T17:27:53.571Z,95724.25
2023-02-17T17:30:19.933Z,95708.23
2023-02-17T17:32:46.275Z,95724.47
2023-02-17T17:35:12.621Z,95715.07
2023-02-17T17:37:39.658Z,95716.03
2023-02-17T17:40:05.328Z,95715.75
2023-02-17T17:42:31.714Z,95715.29
2023-02-17T17:44:58.049Z,95715.29
2023-02-17T17:47:29.838Z,95718.46
2023-02-17T17:49:50.777Z,95713.76
2023-02-17T17:52:17.167Z,95722.42
2023-02-17T17:54:43.502Z,95718.68
2023-02-17T17:57:09.911Z,95715.73
2023-02-17T17:59:36.229Z,95715.13
2023-02-17T18:02:02.645Z,95716.78
2023-02-17T18:04:29.079Z,95721.11
2023-02-17T18:06:57.077Z,95719.45
2023-02-17T18:09:31.320Z,95717.45
2023-02-17T18:11:48.148Z,95719.21
2023-02-17T18:14:14.511Z,95715.46
2023-02-17T18:16:40.900Z,95715.56
2023-02-17T18:19:07.234Z,95715.56
2023-02-17T18:21:33.644Z,95705.09
2023-02-17T18:23:59.978Z,95694.00
2023-02-17T18:26:26.351Z,95694.00
2023-02-17T18:28:52.701Z,95705.58
2023-02-17T18:31:19.254Z,95709.08
2023-02-17T18:33:45.469Z,95711.88
2023-02-17T18:36:11.855Z,95714.80
2023-02-17T18:38:38.201Z,95716.58
2023-02-17T18:41:04.580Z,95714.64
2023-02-17T18:43:30.929Z,95709.94
2023-02-17T18:45:57.315Z,95714.73
2023-02-17T18:48:23.657Z,95714.73
2023-02-17T18:50:50.028Z,95708.75
2023-02-17T18:53:16.361Z,95714.28
2023-02-17T18:55:42.769Z,95716.61
2023-02-17T18:58:10.995Z,95718.36
2023-02-17T19:00:35.491Z,95722.08
2023-02-17T19:03:01.879Z,95717.05
2023-02-17T19:05:28.237Z,95721.92
2023-02-17T19:07:54.583Z,95726.08
2023-02-17T19:10:20.971Z,95725.92
2023-02-17T19:12:47.314Z,95732.37
2023-02-17T19:15:13.706Z,95733.75
2023-02-17T19:17:40.053Z,95733.88
2023-02-17T19:20:06.440Z,95735.25
2023-02-17T19:22:32.798Z,95735.25
2023-02-17T19:24:59.179Z,95737.59
2023-02-17T19:27:25.522Z,95743.20
2023-02-17T19:29:51.904Z,95748.03
2023-02-17T19:32:18.292Z,95748.58
2023-02-17T19:34:44.649Z,95751.73
2023-02-17T19:37:10.981Z,95752.66
2023-02-17T19:39:37.384Z,95757.45
2023-02-17T19:42:03.730Z,95760.52
2023-02-17T19:44:30.097Z,95761.53
2023-02-17T19:46:56.449Z,95772.05
2023-02-17T19:49:22.841Z,95767.97
2023-02-17T19:51:49.224Z,95763.98
2023-02-17T19:54:15.599Z,95760.11
2023-02-17T19:56:41.984Z,95758.45
2023-02-17T19:59:08.321Z,95750.80
2023-02-17T20:01:34.700Z,95750.55
2023-02-17T20:04:01.057Z,95753.05
2023-02-17T20:06:27.443Z,95748.55
2023-02-17T20:08:53.795Z,95748.55
2023-02-17T20:11:20.177Z,95740.91
2023-02-17T20:13:46.894Z,95740.08
2023-02-17T20:16:12.986Z,95735.04
2023-02-17T20:18:39.266Z,95730.92
2023-02-17T20:21:05.649Z,95730.92
2023-02-17T20:23:32.039Z,95724.94
2023-02-17T20:25:58.577Z,95727.14
2023-02-17T20:28:25.117Z,95726.31
2023-02-17T20:30:51.133Z,95726.31
2023-02-17T20:33:17.469Z,95723.86
2023-02-17T20:35:43.874Z,95725.14
2023-02-17T20:38:10.219Z,95728.27
2023-02-17T20:40:36.604Z,95730.85
2023-02-17T20:43:02.954Z,95734.84
2023-02-17T20:45:29.349Z,95736.71
2023-02-17T20:47:55.697Z,95733.64
2023-02-17T20:50:22.110Z,95731.55
2023-02-17T20:52:48.698Z,95725.66
2023-02-17T20:55:14.899Z,95732.47
2023-02-17T20:57:41.240Z,95736.89
2023-02-17T21:00:07.629Z,95742.99
2023-02-17T21:02:34.013Z,95744.48
2023-02-17T21:05:00.368Z,95739.21
2023-02-17T21:07:26.699Z,95744.95
2023-02-17T21:09:53.083Z,95745.41
2023-02-17T21:12:19.420Z,95740.16
2023-02-17T21:14:46.221Z,95746.70
2023-02-17T21:17:12.149Z,95747.61
2023-02-17T21:19:38.551Z,95757.92
2023-02-17T21:22:04.902Z,95740.45
2023-02-17T21:24:31.282Z,95749.20
2023-02-17T21:26:57.694Z,95746.95
2023-02-17T21:29:24.079Z,95745.88
2023-02-17T21:31:50.505Z,95739.43
2023-02-17T21:34:16.842Z,95738.97
2023-02-17T21:36:43.175Z,95734.39
2023-02-17T21:39:09.563Z,95734.02
2023-02-17T21:41:35.946Z,95733.66
2023-02-17T21:44:02.324Z,95728.16
2023-02-17T21:46:28.661Z,95733.31
2023-02-17T21:48:55.049Z,95727.42
2023-02-17T21:51:21.393Z,95726.95
2023-02-17T21:53:47.773Z,95723.21
2023-02-17T21:56:14.120Z,95720.63
2023-02-17T21:58:40.499Z,95717.31
2023-02-17T22:01:06.896Z,95730.20
2023-02-17T22:03:33.228Z,95721.30
2023-02-17T22:05:59.565Z,95723.96
2023-02-17T22:08:25.956Z,95728.28
2023-02-17T22:10:52.286Z,95726.29
2023-02-17T22:13:18.673Z,95731.44
2023-02-17T22:15:45.015Z,95720.67
2023-02-17T22:18:11.410Z,95724.29
2023-02-17T22:20:37.761Z,95723.45
2023-02-17T22:23:04.141Z,95725.66
2023-02-17T22:25:30.503Z,95715.93
2023-02-17T22:27:56.924Z,95728.70
2023-02-17T22:30:24.325Z,95720.14
2023-02-17T22:32:49.703Z,95715.19
2023-02-17T22:35:16.049Z,95707.95
2023-02-17T22:37:42.434Z,95716.02
2023-02-17T22:40:08.769Z,95715.77
2023-02-17T22:42:35.201Z,95715.77
2023-02-17T22:45:01.534Z,95714.94
2023-02-17T22:47:27.928Z,95718.80
2023-02-17T22:49:54.269Z,95719.75
2023-02-17T22:52:20.660Z,95710.73
2023-02-17T22:54:47.007Z,95708.23
2023-02-17T22:57:14.827Z,95707.41
2023-02-17T22:59:39.734Z,95701.43
2023-02-17T23:02:06.144Z,95700.26
2023-02-17T23:04:32.515Z,95701.63
2023-02-17T23:06:58.854Z,95702.00
2023-02-17T23:09:25.202Z,95711.85
2023-02-17T23:11:51.584Z,95710.77
2023-02-17T23:14:17.969Z,95712.39
2023-02-17T23:16:44.358Z,95706.08
2023-02-17T23:19:10.691Z,95702.67
2023-02-17T23:21:37.056Z,95703.13
2023-02-17T23:24:03.410Z,95707.11
2023-02-17T23:26:29.796Z,95700.55
2023-02-17T23:28:56.165Z,95699.47
2023-02-17T23:31:22.654Z,95697.47
2023-02-17T23:33:48.895Z,95696.52
2023-02-17T23:36:15.293Z,95694.89
2023-02-17T23:38:41.664Z,95694.06
2023-02-17T23:41:08.047Z,95691.11
2023-02-17T23:43:34.397Z,95693.59
2023-02-17T23:46:00.852Z,95699.30
2023-02-17T23:48:27.128Z,95694.27
2023-02-17T23:50:53.503Z,95685.70
2023-02-17T23:53:19.849Z,95685.79
2023-02-17T23:55:46.235Z,95675.03
2023-02-17T23:58:12.569Z,95683.33
